Mr. Nelson — WDE7778 — position and weather

sailwx.info

Track history (hours):
 
Tides and Currents Weather Stations Pressure Air Temp Water Temp Dewpoint Dewpoint Depression Visibility Wind Speed Wind Dir Waves Ship Positions

Mr. Nelson

Owner: A C MARINE, INC., CUT OFF, LA. More information available from US FCC via Universal Licensing System and Coast Guard Vessel Documentation Center.

Last reported at 2018-May-24 17:17 UTC. Time now 2018-Jun-20 09:05 UTC.
Position N 29°35' W 090°03'.
Warning: this ship's position is 26 days out of date.

Type: Towing. MMSI: 367397510.

Date/timePositionNaut miles runAvg speedWind from/ knotsBaromVisibWave heightAir tempDewpointWater temp
2018-May-24 17:17N 29°35' W 090°03'  
2018-May-21 18:20N 29°35' W 090°04'  
2018-May-17 13:45N 29°32' W 090°06'  
2018-May-14 22:18N 29°34' W 090°34'1 2.8
2018-May-14 22:00N 29°34' W 090°34'2 3.7
2018-May-14 21:30N 29°35' W 090°37'2 4.1
2018-May-14 20:58N 29°36' W 090°39'2 4.0
2018-May-14 20:30N 29°36' W 090°41'2 3.0
2018-May-14 19:59N 29°36' W 090°43'2 3.9
2018-May-14 19:31N 29°34' W 090°43'1 2.8
2018-May-14 19:01N 29°33' W 090°42'2 4.3
2018-May-14 18:30N 29°31' W 090°43'2 4.1
2018-May-14 18:00N 29°29' W 090°43'2 4.2
2018-May-14 17:30N 29°27' W 090°43'  
Track history (hours):
 
Tides and Currents Weather Stations Pressure Air Temp Water Temp Dewpoint Dewpoint Depression Visibility Wind Speed Wind Dir Waves Ship Positions

Mr. Nelson

Owner: A C MARINE, INC., CUT OFF, LA. More information available from US FCC via Universal Licensing System and Coast Guard Vessel Documentation Center.

Last reported at 2018-May-24 17:17 UTC. Time now 2018-Jun-20 09:05 UTC.
Position N 29°35' W 090°03'.
Warning: this ship's position is 26 days out of date.

Type: Towing. MMSI: 367397510.

Date/timePositionNaut miles runAvg speedWind from/ knotsBaromVisibWave heightAir tempDewpointWater temp
2018-May-24 17:17N 29°35' W 090°03'  
2018-May-21 18:20N 29°35' W 090°04'  
2018-May-17 13:45N 29°32' W 090°06'  
2018-May-14 22:18N 29°34' W 090°34'1 2.8
2018-May-14 22:00N 29°34' W 090°34'2 3.7
2018-May-14 21:30N 29°35' W 090°37'2 4.1
2018-May-14 20:58N 29°36' W 090°39'2 4.0
2018-May-14 20:30N 29°36' W 090°41'2 3.0
2018-May-14 19:59N 29°36' W 090°43'2 3.9
2018-May-14 19:31N 29°34' W 090°43'1 2.8
2018-May-14 19:01N 29°33' W 090°42'2 4.3
2018-May-14 18:30N 29°31' W 090°43'2 4.1
2018-May-14 18:00N 29°29' W 090°43'2 4.2
2018-May-14 17:30N 29°27' W 090°43'  

Dump ship's entire track history